Terminal Aerodrome Forecast
Issued by NWS

Current Version | Previous Version | Graphics & Text | Print | Product List | Glossary On
Versions: 1 2 3 4 5 6 7 8 9 10 11 12 13 14 15 16 17 18 19 20 21 22
000
FTUS41 KRLX 271736
TAFCKB
TAF
KCKB 271736Z 2718/2818 35004KT P6SM BKN045
     FM272100 01005KT P6SM SCT050
     FM272300 00000KT P6SM SKC
     FM280900 00000KT 2SM BR SCT001
     FM281000 00000KT 1/4SM FG VV001
     FM281300 VRB03KT 5SM BR SCT010
     FM281400 VRB03KT P6SM SKC
     FM281700 VRB03KT P6SM SCT050=

USA.gov is the U.S. government's official web portal to all federal, state and local government web resources and services.